Latest Coastal Weather Observations for Nullarbor

IDS60701

Issued at 9:35 pm CST Monday 21 April 2014 (issued every 10 minutes, with the page automatically refreshed every 10 minutes)

About coastal observations | Map of coastal stations | Coastal observations for SA | Marine services | Other Formats
Station Details ID: 018106 Name: NULLARBOR Lat: -31.45 Lon: 130.90 Height: 64.0 m
Data from the previous 72 hours. | See also: Recent months at Nullarbor
Date/Time
CST
Temp

°C
Wind Pressure Rain
since 9am
mm
Weather Cloud Vis
km
Sea
Height
m
Swell
Dir
 
Speed
knots
Gust
knots
hPa Trend Height
m
Period
s
Dir
21/09:30pm 17.3 SSW 9 10 1015.9 - 0.0 - - - - - - -
21/09:00pm 17.7 SSW 9 10 1015.6 - 0.0 - - - - - - -
21/08:30pm 18.0 SSW 10 12 1015.4 - 0.0 - - - - - - -
21/08:00pm 18.5 SSW 12 14 1015.1 - 0.0 - - - - - - -
21/07:30pm 18.6 SSW 11 15 1014.8 - 0.0 - - - - - - -
21/07:00pm 19.0 SSW 11 15 1014.4 - 0.0 - - - - - - -
21/06:30pm 19.3 SSW 13 17 1013.8 - 0.0 - - - - - - -
21/06:00pm 19.9 SSW 15 21 1013.2 - 0.0 - - - - - - -
21/05:30pm 20.5 SSW 17 22 1013.2 - 0.0 - - - - - - -
21/05:00pm 21.6 SSW 17 23 1013.0 - 0.0 - - - - - - -
21/04:30pm 21.6 SSW 18 24 1012.7 - 0.0 - - - - - - -
21/04:00pm 22.8 SSW 19 25 1012.4 - 0.0 - - - - - - -
21/03:30pm 22.6 SW 19 25 1012.0 - 0.0 - - - - - - -
21/03:00pm 23.4 SW 18 22 1011.3 - 0.0 - - - - - - -
21/02:30pm 23.4 SW 17 21 1011.3 - 0.0 - - - - - - -
21/02:00pm 24.2 SW 16 21 1011.3 - 0.0 - - - - - - -
21/01:30pm 24.2 SW 18 24 1011.2 - 0.0 - - - - - - -
21/01:00pm 27.8 SW 17 29 1011.1 - 0.0 - - - - - - -
21/12:55pm 31.4 WNW 18 28 1011.0 - 0.0 - - - - - - -
21/12:30pm 31.5 NW 19 25 1011.0 - 0.0 - - - - - - -
21/12:00pm 30.9 NW 17 24 1011.3 - 0.0 - - - - - - -
21/11:30am 29.9 NW 16 23 1011.8 - 0.0 - - - - - - -
21/11:00am 27.2 NW 16 21 1012.0 - 0.0 - - - - - - -
21/10:30am 26.2 NW 13 19 1012.3 - 0.0 - - - - - - -
21/10:00am 23.9 NW 11 16 1012.7 - 0.0 - - - - - - -
21/09:30am 22.6 NW 13 19 1012.8 - 0.0 - - - - - - -
21/09:00am 23.0 NNW 13 18 1012.1 - 0.0 - - - - - - -
21/08:30am 21.3 NNW 13 16 1011.9 - 0.0 - - - - - - -
21/08:00am 20.1 N 14 18 1011.6 - 0.0 - - - - - - -
21/07:30am 19.6 N 13 17 1011.3 - 0.0 - - - - - - -
21/07:00am 19.8 N 15 19 1010.9 - 0.0 - - - - - - -
21/06:30am 19.8 N 16 20 1010.8 - 0.0 - - - - - - -
21/06:00am 20.0 N 15 20 1010.3 - 0.0 - - - - - - -
21/05:30am 19.8 N 12 15 1010.8 - 0.0 - - - - - - -
21/05:00am 19.8 N 13 16 1010.4 - 0.0 - - - - - - -
21/04:30am 19.6 N 12 15 1010.3 - 0.0 - - - - - - -
21/04:00am 19.7 N 12 14 1010.1 - 0.0 - - - - - - -
21/03:30am 19.4 N 12 15 1010.2 - 0.0 - - - - - - -
21/03:00am 19.3 N 12 15 1010.2 - 0.0 - - - - - - -
21/02:30am 19.3 N 13 16 1010.7 - 0.0 - - - - - - -
21/02:00am 19.6 N 13 16 1010.8 - 0.0 - - - - - - -
21/01:30am 20.0 N 13 16 1011.0 - 0.0 - - - - - - -
21/01:00am 19.1 N 11 13 1011.2 - 0.0 - - - - - - -
21/12:30am 19.8 N 11 12 1011.3 - 0.0 - - - - - - -
21/12:00am 20.7 N 11 13 1011.2 - 0.0 - - - - - - -
 
Date/Time
CST
Temp

°C
Wind Pressure Rain
since 9am
mm
Weather Cloud Vis
km
Sea
Height
m
Swell
Dir
 
Speed
knots
Gust
knots
hPa Trend Height
m
Period
s
Dir
20/11:30pm 21.6 N 12 15 1011.7 - 0.0 - - - - - - -
20/11:00pm 22.6 N 12 15 1011.9 - 0.0 - - - - - - -
20/10:30pm 22.0 N 11 13 1012.0 - 0.0 - - - - - - -
20/10:00pm 22.4 N 11 12 1012.0 - 0.0 - - - - - - -
20/09:30pm 22.3 N 10 11 1012.0 - 0.0 - - - - - - -
20/09:00pm 22.7 N 10 12 1011.7 - 0.0 - - - - - - -
20/08:30pm 22.9 N 10 12 1012.0 - 0.0 - - - - - - -
20/08:00pm 23.5 N 10 11 1012.0 - 0.0 - - - - - - -
20/07:30pm 24.0 N 10 11 1011.9 - 0.0 - - - - - - -
20/07:00pm 24.1 N 10 11 1011.8 - 0.0 - - - - - - -
20/06:30pm 26.3 N 8 9 1011.8 - 0.0 - - - - - - -
20/06:00pm 29.5 N 10 14 1011.3 - 0.0 - - - - - - -
20/05:30pm 31.5 NNW 12 15 1011.5 - 0.0 - - - - - - -
20/05:00pm 32.5 NNW 12 18 1011.5 - 0.0 - - - - - - -
20/04:30pm 33.1 NNW 10 16 1011.5 - 0.0 - - - - - - -
20/04:00pm 33.0 N 15 20 1011.6 - 0.0 - - - - - - -
20/03:30pm 33.2 N 12 21 1011.7 - 0.0 - - - - - - -
20/03:00pm 32.8 NW 14 20 1011.5 - 0.0 - - - - - - -
20/02:30pm 32.8 NW 15 22 1011.9 - 0.0 - - - - - - -
20/02:00pm 33.2 NNW 16 24 1012.2 - 0.0 - - - - - - -
20/01:30pm 32.7 NW 18 28 1012.7 - 0.0 - - - - - - -
20/01:00pm 32.5 NNW 19 25 1013.3 - 0.0 - - - - - - -
20/12:30pm 31.5 NNW 18 26 1013.9 - 0.0 - - - - - - -
20/12:00pm 30.4 NNW 17 24 1014.1 - 0.0 - - - - - - -
20/11:30am 29.3 NNW 16 22 1015.0 - 0.0 - - - - - - -
20/11:00am 27.6 N 15 19 1015.6 - 0.0 - - - - - - -
20/10:30am 26.4 N 15 19 1015.9 - 0.0 - - - - - - -
20/10:00am 24.3 N 15 19 1016.1 - 0.0 - - - - - - -
20/09:30am 22.5 N 15 20 1016.4 - 0.0 - - - - - - -
20/09:00am 20.0 NNE 14 19 1016.3 - 0.0 - - - - - - -
20/08:30am 17.5 NNE 12 15 1016.4 - 0.0 - - - - - - -
20/08:00am 14.9 NNE 11 14 1016.2 - 0.0 - - - - - - -
20/07:30am 13.2 NNE 11 13 1016.0 - 0.0 - - - - - - -
20/07:00am 12.9 NNE 10 12 1015.9 - 0.0 - - - - - - -
20/06:30am 13.3 NNE 10 13 1015.8 - 0.0 - - - - - - -
20/06:00am 13.2 NE 10 12 1015.5 - 0.0 - - - - - - -
20/05:30am 13.1 NE 10 11 1015.5 - 0.0 - - - - - - -
20/05:00am 12.8 NE 9 10 1015.4 - 0.0 - - - - - - -
20/04:30am 12.8 NE 8 10 1015.4 - 0.0 - - - - - - -
20/04:00am 12.9 NE 9 11 1015.4 - 0.0 - - - - - - -
20/03:30am 12.2 E 10 10 1015.5 - 0.0 - - - - - - -
20/03:00am 12.5 E 8 9 1015.6 - 0.0 - - - - - - -
20/02:30am 12.2 E 9 9 1015.9 - 0.0 - - - - - - -
20/02:00am 13.0 E 8 9 1015.9 - 0.0 - - - - - - -
20/01:30am 13.0 E 8 10 1016.1 - 0.0 - - - - - - -
20/01:00am 13.4 E 9 9 1016.2 - 0.0 - - - - - - -
20/12:30am 13.2 ESE 7 8 1016.4 - 0.0 - - - - - - -
20/12:00am 14.4 ENE 7 9 1016.2 - 0.0 - - - - - - -
 
Date/Time
CST
Temp

°C
Wind Pressure Rain
since 9am
mm
Weather Cloud Vis
km
Sea
Height
m
Swell
Dir
 
Speed
knots
Gust
knots
hPa Trend Height
m
Period
s
Dir
19/11:30pm 15.5 NE 8 9 1016.2 - 0.0 - - - - - - -
19/11:00pm 15.6 E 8 9 1016.5 - 0.0 - - - - - - -
19/10:30pm 16.8 ENE 9 10 1016.7 - 0.0 - - - - - - -
19/10:00pm 17.5 E 8 10 1016.8 - 0.0 - - - - - - -
19/09:30pm 17.8 E 9 11 1017.0 - 0.0 - - - - - - -
19/09:00pm 17.8 ESE 9 11 1016.9 - 0.0 - - - - - - -
19/08:30pm 17.8 ESE 9 12 1017.1 - 0.0 - - - - - - -
19/08:00pm 18.0 ESE 10 12 1017.2 - 0.0 - - - - - - -
19/07:30pm 18.4 E 10 12 1017.1 - 0.0 - - - - - - -
19/07:00pm 19.0 ESE 9 12 1016.9 - 0.0 - - - - - - -
19/06:30pm 19.9 ESE 9 11 1016.9 - 0.0 - - - - - - -
19/06:00pm 21.1 ESE 10 12 1016.6 - 0.0 - - - - - - -
19/05:30pm 22.0 SE 13 16 1016.7 - 0.0 - - - - - - -
19/05:00pm 23.6 SE 12 15 1016.8 - 0.0 - - - - - - -
19/04:30pm 24.4 ESE 11 13 1016.9 - 0.0 - - - - - - -
19/04:00pm 24.7 SE 11 14 1017.0 - 0.0 - - - - - - -
19/03:30pm 25.0 ESE 10 13 1017.1 - 0.0 - - - - - - -
19/03:00pm 25.1 SE 10 13 1017.1 - 0.0 - - - - - - -
19/02:30pm 24.8 SSE 10 12 1017.5 - 0.0 - - - - - - -
19/02:00pm 24.5 ESE 7 11 1017.8 - 0.0 - - - - - - -
19/01:30pm 23.4 SE 9 12 1018.4 - 0.0 - - - - - - -
19/01:00pm 23.6 ESE 9 13 1018.9 - 0.0 - - - - - - -
19/12:30pm 23.9 SE 6 8 1019.5 - 0.0 - - - - - - -
19/12:00pm 23.4 ESE 6 9 1019.8 - 0.0 - - - - - - -
19/11:30am 22.9 E 5 9 1020.5 - 0.0 - - - - - - -
19/11:00am 21.5 E 6 10 1021.0 - 0.0 - - - - - - -
19/10:30am 20.6 E 8 11 1021.4 - 0.0 - - - - - - -
19/10:00am 19.8 E 10 12 1021.7 - 0.0 - - - - - - -
19/09:30am 18.7 E 11 13 1021.9 - 0.0 - - - - - - -
19/09:00am 17.3 E 11 13 1021.8 - 0.0 - - - - - - -
19/08:30am 15.5 E 8 10 1021.8 - 0.0 - - - - - - -
19/08:00am 13.7 E 6 8 1021.8 - 0.0 - - - - - - -
19/07:30am 11.4 E 7 8 1021.4 - 0.0 - - - - - - -
19/07:00am 12.1 E 4 5 1021.5 - 0.0 - - - - - - -
19/06:30am 12.7 E 4 5 1021.6 - 0.0 - - - - - - -
19/06:00am 13.9 ESE 7 8 1021.0 - 0.0 - - - - - - -
19/05:30am 14.0 ESE 7 8 1021.1 - 0.0 - - - - - - -
19/05:00am 14.3 ESE 7 9 1021.1 - 0.0 - - - - - - -
19/04:30am 14.2 E 7 8 1021.0 - 0.0 - - - - - - -
19/04:00am 14.4 ESE 7 9 1021.0 - 0.0 - - - - - - -
19/03:30am 14.3 ESE 8 9 1021.2 - 0.0 - - - - - - -
19/03:00am 14.6 ESE 8 9 1021.2 - 0.0 - - - - - - -
19/02:30am 14.3 ESE 6 7 1021.6 - 0.0 - - - - - - -
19/02:00am 15.2 ESE 7 8 1021.8 - 0.0 - - - - - - -
19/01:30am 16.0 ESE 8 10 1022.0 - 0.0 - - - - - - -
19/01:00am 16.4 E 8 9 1022.3 - 0.0 - - - - - - -
19/12:30am 17.0 ESE 9 12 1022.3 - 0.0 - - - - - - -
19/12:00am 16.8 ESE 9 11 1022.2 - 0.0 - - - - - - -
 
Date/Time
CST
Temp

°C
Wind Pressure Rain
since 9am
mm
Weather Cloud Vis
km
Sea
Height
m
Swell
Dir
 
Speed
knots
Gust
knots
hPa Trend Height
m
Period
s
Dir
18/11:30pm 16.3 ESE 8 10 1022.7 - 0.0 - - - - - - -
18/11:00pm 16.8 ESE 9 12 1022.7 - 0.0 - - - - - - -
18/10:30pm 17.2 ESE 11 14 1022.6 - 0.0 - - - - - - -
18/10:00pm 17.5 SE 12 17 1022.7 - 0.0 - - - - - - -

Other Formats:

Comma delimited format used in spreadsheet applications
http://www.bom.gov.au/fwo/IDS60701/IDS60701.94651.axf

JavaScript Object Notation format (JSON) in row-major order
http://www.bom.gov.au/fwo/IDS60701/IDS60701.94651.json